Minnie, Kentucky
Current Conditions -  °F | °C
As of 8:55 PM on Saturday 22 Nov 2014 (Local Time) from KPBX Reporting Station
Scattered Clouds Scattered Clouds  
Wind Chill: 52°   Ceiling: Unl
Heat Index: 52°   Visibility: 10mi
Dew Point: 22°   Wind: 6mph
Humidity: 32%   Direction: 170°S
Pressure: 30.18"   Gusts: NA
Location:  37.48°N, 82.76°W
Report Text: KPBX 230155Z AUTO 17005KT 10SM SCT080 11/M05 A3018 RMK AO2 T01101053
Loading
Personal Weather Stations






























Interactive Weather Map New forecast layout! Learn more

10-Day Weather Forecast

Advertisements
Track Severe Weather on mobile